createdAt,value
2019-02-27T00:00:20.108Z,99.99
2019-02-27T00:01:20.096Z,99.99
2019-02-27T00:02:22.690Z,99.99
2019-02-27T00:03:20.071Z,99.99
2019-02-27T00:04:20.056Z,99.99
2019-02-27T00:05:20.039Z,99.99
2019-02-27T00:06:20.031Z,99.99
2019-02-27T00:07:20.974Z,99.99
2019-02-27T00:08:19.997Z,99.99
2019-02-27T00:09:19.985Z,99.99
2019-02-27T00:10:19.974Z,99.99
2019-02-27T00:11:19.977Z,99.99
2019-02-27T00:12:20.065Z,99.99
2019-02-27T00:13:19.928Z,99.99
2019-02-27T00:14:19.918Z,99.99
2019-02-27T00:15:19.900Z,99.99
2019-02-27T00:16:19.886Z,99.99
2019-02-27T00:17:19.877Z,99.99
2019-02-27T00:18:23.755Z,99.99
2019-02-27T00:19:19.846Z,99.99
2019-02-27T00:20:19.829Z,99.99
2019-02-27T00:21:19.818Z,99.99
2019-02-27T00:22:19.804Z,99.99
2019-02-27T00:23:23.886Z,99.99
2019-02-27T00:24:19.774Z,99.99
2019-02-27T00:25:19.760Z,99.99
2019-02-27T00:26:19.746Z,99.99
2019-02-27T00:27:19.735Z,99.99
2019-02-27T00:28:23.173Z,99.99
2019-02-27T00:29:19.704Z,99.99
2019-02-27T00:30:19.690Z,99.99
2019-02-27T00:31:19.678Z,99.99
2019-02-27T00:32:19.661Z,99.99
2019-02-27T00:33:25.249Z,99.99
2019-02-27T00:34:19.635Z,99.99
2019-02-27T00:35:19.622Z,99.99
2019-02-27T00:36:19.607Z,99.99
2019-02-27T00:37:19.593Z,99.99
2019-02-27T00:38:19.579Z,99.99
2019-02-27T00:39:19.564Z,99.99
2019-02-27T00:40:19.548Z,99.99
2019-02-27T00:41:19.535Z,99.99
2019-02-27T00:42:20.648Z,99.99
2019-02-27T00:43:19.509Z,99.99
2019-02-27T00:44:19.492Z,99.99
2019-02-27T00:45:19.480Z,99.99
2019-02-27T00:46:19.463Z,99.99
2019-02-27T00:47:20.123Z,99.99
2019-02-27T00:48:19.434Z,99.99
2019-02-27T00:49:19.421Z,99.99
2019-02-27T00:50:19.421Z,99.99
2019-02-27T00:51:19.395Z,99.99
2019-02-27T00:52:19.377Z,99.99
2019-02-27T00:53:19.364Z,99.99
2019-02-27T00:54:19.349Z,99.99
2019-02-27T00:55:19.337Z,99.99
2019-02-27T00:56:19.320Z,99.99
2019-02-27T00:57:20.812Z,99.99
2019-02-27T00:58:19.293Z,99.99
2019-02-27T00:59:19.279Z,99.99
2019-02-27T01:00:19.269Z,99.99
2019-02-27T01:01:19.249Z,99.99
2019-02-27T01:02:20.161Z,99.99
2019-02-27T01:03:19.221Z,99.99
2019-02-27T01:04:19.208Z,99.99
2019-02-27T01:05:19.195Z,99.99
2019-02-27T01:06:19.179Z,99.99
2019-02-27T01:07:20.688Z,99.99
2019-02-27T01:08:19.179Z,99.99
2019-02-27T01:09:19.135Z,99.99
2019-02-27T01:10:19.136Z,99.99
2019-02-27T01:11:19.110Z,99.99
2019-02-27T01:12:19.096Z,99.99
2019-02-27T01:13:19.082Z,99.99
2019-02-27T01:14:19.068Z,99.99
2019-02-27T01:15:19.052Z,99.99
2019-02-27T01:16:19.038Z,99.99
2019-02-27T01:17:20.943Z,99.99
2019-02-27T01:18:19.005Z,99.99
2019-02-27T01:19:18.992Z,99.99
2019-02-27T01:20:18.978Z,99.99
2019-02-27T01:21:20.037Z,99.99
2019-02-27T01:22:18.951Z,99.99
2019-02-27T01:23:18.934Z,99.99
2019-02-27T01:24:18.931Z,99.99
2019-02-27T01:25:22.901Z,99.99
2019-02-27T01:26:18.890Z,99.99
2019-02-27T01:27:18.878Z,99.99
2019-02-27T01:28:18.864Z,99.99
2019-02-27T01:29:18.847Z,99.99
2019-02-27T01:30:18.834Z,99.99
2019-02-27T01:31:18.820Z,99.99
2019-02-27T01:32:18.805Z,99.99
2019-02-27T01:33:18.789Z,99.99
2019-02-27T01:34:18.782Z,99.99
2019-02-27T01:35:18.974Z,99.99
2019-02-27T01:36:18.744Z,99.99
2019-02-27T01:37:18.730Z,99.99
2019-02-27T01:38:18.721Z,99.99
2019-02-27T01:39:18.702Z,99.99
2019-02-27T01:40:18.740Z,99.99
2019-02-27T01:41:18.673Z,99.99
2019-02-27T01:42:18.661Z,99.99
2019-02-27T01:43:18.646Z,99.99
2019-02-27T01:44:18.629Z,99.99
2019-02-27T01:45:21.114Z,99.99
2019-02-27T01:46:18.601Z,99.99
2019-02-27T01:47:18.588Z,99.99
2019-02-27T01:48:18.572Z,99.99
2019-02-27T01:49:18.558Z,99.99
2019-02-27T01:50:19.967Z,99.99
2019-02-27T01:51:18.530Z,99.99
2019-02-27T01:52:18.511Z,99.99
2019-02-27T01:53:18.498Z,99.99
2019-02-27T01:54:18.485Z,99.99
2019-02-27T01:55:21.675Z,99.99
2019-02-27T01:56:18.454Z,99.99
2019-02-27T01:57:18.442Z,99.99
2019-02-27T01:58:18.425Z,99.99
2019-02-27T01:59:18.410Z,99.99
2019-02-27T02:00:22.923Z,99.99
2019-02-27T02:01:18.380Z,99.99
2019-02-27T02:02:18.366Z,99.99
2019-02-27T02:03:18.351Z,99.99
2019-02-27T02:04:20.271Z,99.99
2019-02-27T02:05:18.323Z,99.99
2019-02-27T02:06:18.306Z,99.99
2019-02-27T02:07:18.292Z,99.99
2019-02-27T02:08:18.279Z,99.99
2019-02-27T02:09:21.053Z,99.99
2019-02-27T02:10:18.249Z,99.99
2019-02-27T02:11:18.235Z,99.99
2019-02-27T02:12:18.220Z,99.99
2019-02-27T02:13:18.204Z,99.99
2019-02-27T02:14:21.000Z,99.99
2019-02-27T02:15:18.174Z,99.99
2019-02-27T02:16:18.159Z,99.99
2019-02-27T02:17:18.144Z,99.99
2019-02-27T02:18:18.134Z,99.99
2019-02-27T02:19:19.004Z,99.99
2019-02-27T02:20:18.101Z,99.99
2019-02-27T02:21:18.086Z,99.99
2019-02-27T02:22:18.070Z,99.99
2019-02-27T02:23:18.056Z,99.99
2019-02-27T02:24:20.904Z,99.99
2019-02-27T02:25:18.027Z,99.99
2019-02-27T02:26:18.013Z,99.99
2019-02-27T02:27:17.998Z,99.99
2019-02-27T02:28:17.980Z,99.99
2019-02-27T02:29:20.418Z,99.99
2019-02-27T02:30:17.955Z,99.99
2019-02-27T02:31:17.937Z,99.99
2019-02-27T02:32:18.172Z,99.99
2019-02-27T02:33:17.906Z,99.99
2019-02-27T02:34:17.893Z,99.99
2019-02-27T02:35:17.881Z,99.99
2019-02-27T02:36:17.868Z,99.99
2019-02-27T02:37:17.866Z,99.99
2019-02-27T02:38:17.855Z,99.99
2019-02-27T02:39:19.236Z,99.99
2019-02-27T02:40:17.803Z,99.99
2019-02-27T02:41:17.793Z,99.99
2019-02-27T02:42:17.785Z,99.99
2019-02-27T02:43:17.756Z,99.99
2019-02-27T02:44:20.663Z,99.99
2019-02-27T02:45:17.726Z,99.99
2019-02-27T02:46:17.714Z,99.99
2019-02-27T02:47:21.025Z,99.99
2019-02-27T02:48:17.685Z,99.99
2019-02-27T02:49:17.672Z,99.99
2019-02-27T02:50:18.439Z,99.99
2019-02-27T02:51:17.637Z,99.99
2019-02-27T02:52:17.627Z,99.99
2019-02-27T02:53:17.606Z,99.99
2019-02-27T02:54:17.592Z,99.99
2019-02-27T02:55:17.582Z,99.99
2019-02-27T02:56:17.561Z,99.99
2019-02-27T02:57:17.549Z,99.99
2019-02-27T02:58:17.533Z,99.99
2019-02-27T02:59:24.254Z,99.99
2019-02-27T03:00:17.502Z,99.99
2019-02-27T03:01:17.486Z,99.99
2019-02-27T03:02:23.399Z,99.99
2019-02-27T03:03:17.457Z,99.99
2019-02-27T03:04:17.443Z,99.99
2019-02-27T03:05:22.889Z,99.99
2019-02-27T03:06:17.412Z,99.99
2019-02-27T03:07:17.396Z,99.99
2019-02-27T03:08:20.148Z,99.99
2019-02-27T03:09:17.371Z,99.99
2019-02-27T03:11:19.059Z,99.99
2019-02-27T03:12:17.321Z,99.99
2019-02-27T03:13:17.349Z,99.99
2019-02-27T03:14:18.420Z,99.99
2019-02-27T03:15:17.277Z,99.99
2019-02-27T03:16:17.261Z,99.99
2019-02-27T03:17:18.430Z,99.99
2019-02-27T03:18:17.230Z,99.99
2019-02-27T03:19:17.215Z,99.99
2019-02-27T03:20:17.817Z,99.99
2019-02-27T03:21:17.191Z,99.99
2019-02-27T03:22:17.173Z,99.99
2019-02-27T03:23:17.159Z,99.99
2019-02-27T03:24:17.142Z,99.99
2019-02-27T03:25:17.126Z,99.99
2019-02-27T03:26:17.800Z,99.99
2019-02-27T03:27:17.094Z,99.99
2019-02-27T03:28:17.078Z,99.99
2019-02-27T03:29:17.396Z,99.99
2019-02-27T03:30:17.050Z,99.99
2019-02-27T03:31:19.187Z,99.99
2019-02-27T03:32:17.018Z,99.99
2019-02-27T03:33:23.632Z,99.99
2019-02-27T03:34:16.987Z,99.99
2019-02-27T03:35:16.975Z,99.99
2019-02-27T03:36:16.955Z,99.99
2019-02-27T03:37:16.942Z,99.99
2019-02-27T03:38:16.929Z,99.99
2019-02-27T03:39:16.911Z,99.99
2019-02-27T03:40:16.894Z,99.99
2019-02-27T03:41:22.462Z,99.99
2019-02-27T03:42:16.868Z,99.99
2019-02-27T03:43:16.852Z,99.99
2019-02-27T03:44:20.207Z,99.99
2019-02-27T03:45:16.820Z,99.99
2019-02-27T03:46:16.806Z,99.99
2019-02-27T03:47:17.049Z,99.99
2019-02-27T03:48:16.784Z,99.99
2019-02-27T03:49:16.757Z,99.99
2019-02-27T03:50:16.745Z,99.99
2019-02-27T03:51:16.756Z,99.99
2019-02-27T03:52:16.717Z,99.99
2019-02-27T03:53:16.700Z,99.99
2019-02-27T03:54:20.875Z,99.99
2019-02-27T03:55:16.668Z,99.99
2019-02-27T03:56:16.653Z,99.99
2019-02-27T03:57:20.124Z,99.99
2019-02-27T03:58:16.623Z,99.99
2019-02-27T03:59:16.608Z,99.99
2019-02-27T04:00:19.099Z,99.99
2019-02-27T04:01:16.578Z,99.99
2019-02-27T04:02:16.561Z,99.99
2019-02-27T04:03:18.157Z,99.99
2019-02-27T04:04:16.530Z,99.99
2019-02-27T04:05:16.516Z,99.99
2019-02-27T04:06:19.626Z,99.99
2019-02-27T04:07:16.485Z,99.99
2019-02-27T04:08:16.469Z,99.99
2019-02-27T04:09:19.812Z,99.99
2019-02-27T04:10:16.438Z,99.99
2019-02-27T04:11:16.427Z,99.99
2019-02-27T04:12:17.431Z,99.99
2019-02-27T04:13:16.391Z,99.99
2019-02-27T04:14:16.375Z,99.99
2019-02-27T04:15:18.096Z,99.99
2019-02-27T04:16:16.345Z,99.99
2019-02-27T04:17:16.330Z,99.99
2019-02-27T04:18:16.317Z,99.99
2019-02-27T04:19:16.299Z,99.99
2019-02-27T04:20:16.285Z,99.99
2019-02-27T04:21:16.268Z,99.99
2019-02-27T04:22:16.256Z,99.99
2019-02-27T04:23:16.247Z,99.99
2019-02-27T04:24:16.223Z,99.99
2019-02-27T04:25:16.211Z,99.99
2019-02-27T04:26:16.202Z,99.99
2019-02-27T04:27:20.198Z,99.99
2019-02-27T04:28:16.160Z,99.99
2019-02-27T04:29:16.144Z,99.99
2019-02-27T04:30:16.145Z,99.99
2019-02-27T04:31:16.126Z,99.99
2019-02-27T04:32:16.099Z,99.99
2019-02-27T04:33:16.091Z,99.99
2019-02-27T04:34:16.068Z,99.99
2019-02-27T04:35:16.052Z,99.99
2019-02-27T04:36:16.036Z,99.99
2019-02-27T04:37:17.743Z,99.99
2019-02-27T04:38:16.011Z,99.99
2019-02-27T04:39:15.992Z,99.99
2019-02-27T04:40:15.975Z,99.99
2019-02-27T04:41:18.048Z,99.99
2019-02-27T04:42:15.945Z,99.99
2019-02-27T04:43:15.929Z,99.99
2019-02-27T04:44:15.913Z,99.99
2019-02-27T04:45:15.901Z,99.99
2019-02-27T04:46:15.882Z,99.99
2019-02-27T04:47:15.877Z,99.99
2019-02-27T04:48:15.850Z,99.99
2019-02-27T04:49:15.835Z,99.99
2019-02-27T04:50:15.824Z,99.99
2019-02-27T04:51:17.254Z,99.99
2019-02-27T04:52:15.789Z,99.99
2019-02-27T04:53:15.774Z,99.99
2019-02-27T04:54:15.761Z,99.99
2019-02-27T04:55:16.264Z,99.99
2019-02-27T04:56:15.732Z,99.99
2019-02-27T04:57:15.713Z,99.99
2019-02-27T04:58:15.695Z,99.99
2019-02-27T04:59:18.560Z,99.99
2019-02-27T05:00:15.664Z,99.99
2019-02-27T05:01:15.651Z,99.99
2019-02-27T05:02:15.636Z,99.99
2019-02-27T05:03:15.619Z,99.99
2019-02-27T05:04:15.602Z,99.99
2019-02-27T05:05:15.590Z,99.99
2019-02-27T05:06:15.573Z,99.99
2019-02-27T05:07:20.097Z,99.99
2019-02-27T05:08:15.540Z,99.99
2019-02-27T05:09:15.531Z,99.99
2019-02-27T05:10:15.511Z,99.99
2019-02-27T05:11:15.497Z,99.99
2019-02-27T05:12:15.481Z,99.99
2019-02-27T05:13:15.464Z,99.99
2019-02-27T05:14:15.450Z,99.99
2019-02-27T05:15:15.432Z,99.99
2019-02-27T05:16:15.416Z,99.99
2019-02-27T05:17:15.401Z,99.99
2019-02-27T05:18:15.396Z,99.99
2019-02-27T05:19:15.399Z,99.99
2019-02-27T05:20:15.355Z,99.99
2019-02-27T05:21:18.994Z,99.99
2019-02-27T05:22:15.330Z,99.99
2019-02-27T05:23:15.308Z,99.99
2019-02-27T05:24:15.293Z,99.99
2019-02-27T05:25:15.278Z,99.99
2019-02-27T05:26:15.261Z,99.99
2019-02-27T05:27:15.246Z,99.99
2019-02-27T05:28:15.231Z,99.99
2019-02-27T05:29:15.848Z,99.99
2019-02-27T05:30:15.200Z,99.99
2019-02-27T05:31:18.354Z,99.99
2019-02-27T05:32:15.170Z,99.99
2019-02-27T05:33:15.155Z,99.99
2019-02-27T05:34:15.142Z,99.99
2019-02-27T05:35:15.122Z,99.99
2019-02-27T05:36:15.108Z,99.99
2019-02-27T05:37:15.091Z,99.99
2019-02-27T05:38:15.078Z,99.99
2019-02-27T05:39:17.290Z,99.99
2019-02-27T05:40:15.046Z,99.99
2019-02-27T05:41:15.027Z,99.99
2019-02-27T05:42:15.012Z,99.99
2019-02-27T05:43:14.998Z,99.99
2019-02-27T05:44:14.990Z,99.99
2019-02-27T05:45:14.967Z,99.99
2019-02-27T05:46:15.184Z,99.99
2019-02-27T05:47:14.936Z,99.99
2019-02-27T05:48:14.919Z,99.99
2019-02-27T05:49:14.902Z,99.99
2019-02-27T05:50:14.888Z,99.99
2019-02-27T05:51:14.875Z,99.99
2019-02-27T05:52:15.090Z,99.99
2019-02-27T05:53:14.841Z,99.99
2019-02-27T05:54:14.825Z,99.99
2019-02-27T05:55:14.810Z,99.99
2019-02-27T05:56:16.299Z,99.99
2019-02-27T05:57:14.776Z,99.99
2019-02-27T05:58:14.764Z,99.99
2019-02-27T05:59:14.746Z,99.99
2019-02-27T06:00:14.729Z,99.99
2019-02-27T06:01:14.715Z,99.99
2019-02-27T06:02:14.700Z,99.99
2019-02-27T06:03:15.915Z,99.99
2019-02-27T06:04:14.667Z,99.99
2019-02-27T06:05:14.651Z,99.99
2019-02-27T06:06:14.639Z,99.99
2019-02-27T06:07:18.663Z,99.99
2019-02-27T06:08:14.605Z,99.99
2019-02-27T06:09:14.581Z,99.99
2019-02-27T06:10:17.465Z,99.99
2019-02-27T06:11:14.548Z,99.99
2019-02-27T06:12:14.530Z,99.99
2019-02-27T06:13:14.740Z,99.99
2019-02-27T06:14:14.497Z,99.99
2019-02-27T06:15:14.483Z,99.99
2019-02-27T06:16:14.469Z,99.99
2019-02-27T06:17:14.450Z,99.99
2019-02-27T06:18:14.436Z,99.99
2019-02-27T06:19:14.419Z,99.99
2019-02-27T06:20:14.382Z,99.99
2019-02-27T06:21:16.516Z,99.99
2019-02-27T06:22:14.353Z,99.99
2019-02-27T06:23:14.338Z,99.99
2019-02-27T06:24:14.321Z,99.99
2019-02-27T06:25:18.476Z,99.99
2019-02-27T06:26:14.288Z,99.99
2019-02-27T06:27:14.271Z,99.99
2019-02-27T06:28:18.506Z,99.99
2019-02-27T06:29:14.243Z,99.99
2019-02-27T06:30:14.227Z,99.99
2019-02-27T06:31:14.210Z,99.99
2019-02-27T06:32:14.191Z,99.99
2019-02-27T06:33:14.180Z,99.99
2019-02-27T06:34:14.165Z,99.99
2019-02-27T06:35:14.145Z,99.99
2019-02-27T06:36:14.130Z,99.99
2019-02-27T06:37:15.515Z,99.99
2019-02-27T06:38:14.102Z,99.99
2019-02-27T06:39:14.085Z,99.99
2019-02-27T06:40:14.070Z,99.99
2019-02-27T06:41:15.766Z,99.99
2019-02-27T06:42:14.164Z,99.99
2019-02-27T06:43:14.023Z,99.99
2019-02-27T06:44:14.013Z,99.99
2019-02-27T06:45:13.990Z,99.99
2019-02-27T06:46:13.976Z,99.99
2019-02-27T06:47:13.959Z,99.99
2019-02-27T06:48:13.943Z,99.99
2019-02-27T06:49:17.310Z,99.99
2019-02-27T06:50:13.910Z,99.99
2019-02-27T06:51:13.893Z,99.99
2019-02-27T06:52:13.879Z,99.99
2019-02-27T06:53:16.494Z,99.99
2019-02-27T06:54:18.127Z,99.99
2019-02-27T06:55:13.832Z,99.99
2019-02-27T06:56:13.820Z,99.99
2019-02-27T06:57:13.800Z,99.99
2019-02-27T06:58:14.796Z,99.99
2019-02-27T06:59:13.770Z,99.99
2019-02-27T07:00:13.754Z,99.99
2019-02-27T07:01:13.736Z,99.99
2019-02-27T07:02:13.725Z,99.99
2019-02-27T07:03:13.708Z,99.99
2019-02-27T07:04:13.692Z,99.99
2019-02-27T07:05:14.136Z,99.99
2019-02-27T07:06:13.664Z,99.99
2019-02-27T07:07:13.647Z,99.99
2019-02-27T07:08:13.629Z,99.99
2019-02-27T07:09:13.616Z,99.99
2019-02-27T07:10:13.602Z,99.99
2019-02-27T07:11:13.588Z,99.99
2019-02-27T07:12:13.569Z,99.99
2019-02-27T07:13:13.594Z,99.99
2019-02-27T07:14:13.539Z,99.99
2019-02-27T07:15:13.547Z,99.99
2019-02-27T07:16:13.505Z,99.99
2019-02-27T07:17:13.489Z,99.99
2019-02-27T07:18:13.475Z,99.99
2019-02-27T07:19:15.838Z,99.99
2019-02-27T07:20:13.446Z,99.99
2019-02-27T07:21:13.429Z,99.99
2019-02-27T07:22:13.413Z,99.99
2019-02-27T07:23:13.400Z,99.99
2019-02-27T07:24:13.381Z,99.99
2019-02-27T07:25:13.365Z,99.99
2019-02-27T07:26:15.875Z,99.99
2019-02-27T07:27:13.336Z,99.99
2019-02-27T07:28:13.319Z,99.99
2019-02-27T07:29:21.370Z,99.99
2019-02-27T07:30:13.287Z,99.99
2019-02-27T07:31:17.565Z,99.99
2019-02-27T07:32:13.256Z,99.99
2019-02-27T07:33:13.241Z,99.99
2019-02-27T07:34:14.379Z,99.99
2019-02-27T07:35:13.212Z,99.99
2019-02-27T07:36:13.194Z,99.99
2019-02-27T07:37:13.595Z,99.99
2019-02-27T07:38:13.164Z,99.99
2019-02-27T07:39:13.151Z,99.99
2019-02-27T07:40:13.134Z,99.99
2019-02-27T07:41:17.464Z,99.99
2019-02-27T07:42:13.103Z,99.99
2019-02-27T07:43:13.088Z,99.99
2019-02-27T07:44:13.073Z,99.99
2019-02-27T07:45:13.058Z,99.99
2019-02-27T07:46:13.048Z,99.99
2019-02-27T07:47:13.029Z,99.99
2019-02-27T07:48:13.010Z,99.99
2019-02-27T07:49:12.999Z,99.99
2019-02-27T07:50:12.985Z,99.99
2019-02-27T07:51:12.968Z,99.99
2019-02-27T07:52:12.952Z,99.99
2019-02-27T07:53:17.492Z,99.99
2019-02-27T07:54:12.924Z,99.99
2019-02-27T07:55:21.505Z,99.99
2019-02-27T07:56:12.890Z,99.99
2019-02-27T07:57:12.877Z,99.99
2019-02-27T07:58:12.863Z,99.99
2019-02-27T07:59:12.848Z,99.99
2019-02-27T08:00:15.160Z,99.99
2019-02-27T08:01:12.819Z,99.99
2019-02-27T08:02:12.804Z,99.99
2019-02-27T08:03:13.136Z,99.99
2019-02-27T08:04:12.775Z,99.99
2019-02-27T08:05:12.764Z,99.99
2019-02-27T08:06:12.746Z,99.99
2019-02-27T08:07:13.107Z,99.99
2019-02-27T08:08:12.716Z,99.99
2019-02-27T08:09:12.702Z,99.99
2019-02-27T08:10:12.687Z,99.99
2019-02-27T08:11:13.655Z,99.99
2019-02-27T08:12:12.663Z,99.99
2019-02-27T08:13:12.646Z,99.99
2019-02-27T08:14:13.084Z,99.99
2019-02-27T08:15:13.599Z,99.99
2019-02-27T08:16:12.603Z,99.99
2019-02-27T08:17:17.734Z,99.99
2019-02-27T08:18:12.672Z,99.99
2019-02-27T08:19:12.559Z,99.99
2019-02-27T08:20:12.547Z,99.99
2019-02-27T08:21:12.532Z,99.99
2019-02-27T08:22:12.518Z,99.99
2019-02-27T08:23:12.504Z,99.99
2019-02-27T08:24:12.490Z,99.99
2019-02-27T08:25:12.477Z,99.99
2019-02-27T08:26:12.462Z,99.99
2019-02-27T08:27:12.451Z,99.99
2019-02-27T08:28:12.435Z,99.99
2019-02-27T08:29:12.422Z,99.99
2019-02-27T08:30:12.408Z,99.99
2019-02-27T08:31:12.399Z,99.99
2019-02-27T08:32:12.379Z,99.99
2019-02-27T08:33:12.375Z,99.99
2019-02-27T08:34:12.352Z,99.99
2019-02-27T08:35:12.340Z,99.99
2019-02-27T08:36:12.326Z,99.99
2019-02-27T08:37:12.315Z,99.99
2019-02-27T08:38:12.311Z,99.99
2019-02-27T08:39:12.288Z,99.99
2019-02-27T08:40:12.276Z,99.99
2019-02-27T08:41:12.267Z,99.99
2019-02-27T08:42:12.246Z,99.99
2019-02-27T08:43:12.235Z,99.99
2019-02-27T08:44:12.533Z,99.99
2019-02-27T08:45:19.192Z,99.99
2019-02-27T08:46:12.196Z,99.99
2019-02-27T08:47:12.184Z,99.99
2019-02-27T08:48:17.096Z,99.99
2019-02-27T08:49:12.156Z,99.99
2019-02-27T08:50:13.852Z,99.99
2019-02-27T08:51:12.131Z,99.99
2019-02-27T08:52:13.122Z,99.99
2019-02-27T08:53:12.105Z,99.99
2019-02-27T08:54:12.091Z,99.99
2019-02-27T08:55:18.782Z,99.99
2019-02-27T08:56:12.301Z,99.99
2019-02-27T08:57:12.053Z,99.99
2019-02-27T08:58:12.041Z,99.99
2019-02-27T08:59:12.028Z,99.99
2019-02-27T09:00:14.209Z,99.99
2019-02-27T09:01:12.002Z,99.99
2019-02-27T09:02:11.992Z,99.99
2019-02-27T09:03:19.944Z,99.99
2019-02-27T09:04:12.402Z,99.99
2019-02-27T09:05:11.957Z,99.99
2019-02-27T09:06:11.941Z,99.99
2019-02-27T09:07:11.930Z,99.99
2019-02-27T09:08:11.916Z,99.99
2019-02-27T09:09:11.903Z,99.99
2019-02-27T09:10:11.894Z,99.99
2019-02-27T09:11:11.880Z,99.99
2019-02-27T09:12:13.378Z,99.99
2019-02-27T09:13:11.853Z,99.99
2019-02-27T09:14:12.070Z,99.99
2019-02-27T09:15:11.829Z,99.99
2019-02-27T09:16:11.817Z,99.99
2019-02-27T09:17:11.805Z,99.99
2019-02-27T09:18:11.794Z,99.99
2019-02-27T09:20:12.650Z,99.99
2019-02-27T09:21:11.758Z,99.55
2019-02-27T09:22:11.745Z,99.99
2019-02-27T09:23:11.732Z,99.74
2019-02-27T09:24:11.722Z,97.65
2019-02-27T09:25:11.709Z,97.65
2019-02-27T09:26:11.697Z,98.50
2019-02-27T09:27:11.684Z,94.89
2019-02-27T09:28:11.674Z,95.75
2019-02-27T09:29:11.662Z,96.84
2019-02-27T09:30:11.647Z,96.46
2019-02-27T09:31:12.205Z,95.60
2019-02-27T09:32:11.781Z,95.22
2019-02-27T09:33:11.617Z,94.27
2019-02-27T09:34:11.677Z,95.12
2019-02-27T09:35:11.594Z,92.27
2019-02-27T09:36:11.583Z,91.51
2019-02-27T09:37:13.872Z,92.55
2019-02-27T09:38:11.559Z,90.22
2019-02-27T09:39:11.546Z,90.08
2019-02-27T09:40:11.535Z,91.27
2019-02-27T09:41:12.409Z,92.32
2019-02-27T09:42:11.513Z,91.65
2019-02-27T09:43:11.743Z,89.36
2019-02-27T09:44:11.489Z,88.03
2019-02-27T09:45:11.920Z,87.17
2019-02-27T09:46:11.468Z,87.27
2019-02-27T09:47:11.458Z,86.41
2019-02-27T09:48:11.455Z,86.41
2019-02-27T09:49:11.437Z,86.60
2019-02-27T09:50:11.865Z,87.74
2019-02-27T09:51:11.413Z,88.98
2019-02-27T09:52:11.401Z,87.07
2019-02-27T09:53:11.392Z,88.45
2019-02-27T09:54:13.307Z,86.16
2019-02-27T09:55:11.375Z,87.12
2019-02-27T09:56:11.695Z,86.55
2019-02-27T09:57:11.349Z,87.50
2019-02-27T09:58:11.628Z,84.64
2019-02-27T09:59:11.329Z,85.12
2019-02-27T10:00:11.315Z,85.45
2019-02-27T10:01:11.308Z,84.11
2019-02-27T10:02:12.486Z,83.16
2019-02-27T10:03:11.287Z,81.73
2019-02-27T10:04:11.273Z,82.30
2019-02-27T10:05:12.476Z,81.54
2019-02-27T10:06:11.253Z,81.54
2019-02-27T10:07:11.243Z,81.63
2019-02-27T10:08:11.231Z,81.35
2019-02-27T10:09:11.223Z,80.33
2019-02-27T10:10:11.212Z,79.67
2019-02-27T10:11:11.211Z,78.72
2019-02-27T10:12:11.194Z,78.14
2019-02-27T10:13:11.183Z,79.19
2019-02-27T10:14:11.171Z,78.09
2019-02-27T10:15:11.162Z,76.84
2019-02-27T10:16:11.153Z,76.65
2019-02-27T10:17:11.140Z,75.22
2019-02-27T10:18:11.135Z,74.74
2019-02-27T10:19:11.122Z,75.03
2019-02-27T10:20:11.112Z,75.89
2019-02-27T10:21:12.107Z,74.93
2019-02-27T10:22:11.091Z,75.03
2019-02-27T10:23:11.099Z,75.54
2019-02-27T10:24:11.073Z,75.35
2019-02-27T10:25:11.063Z,72.78
2019-02-27T10:26:11.054Z,72.87
2019-02-27T10:27:11.043Z,73.44
2019-02-27T10:28:11.038Z,72.87
2019-02-27T10:29:13.432Z,73.07
2019-02-27T10:30:11.686Z,72.20
2019-02-27T10:31:12.650Z,70.20
2019-02-27T10:32:10.997Z,71.44
2019-02-27T10:33:11.838Z,71.72
2019-02-27T10:34:10.979Z,71.28
2019-02-27T10:35:10.970Z,70.90
2019-02-27T10:36:10.959Z,70.52
2019-02-27T10:37:13.312Z,70.23
2019-02-27T10:38:10.945Z,70.23
2019-02-27T10:39:10.934Z,70.33
2019-02-27T10:40:11.471Z,69.66
2019-02-27T10:41:10.915Z,70.04
2019-02-27T10:42:10.906Z,69.47
2019-02-27T10:43:10.895Z,69.18
2019-02-27T10:44:10.886Z,68.90
2019-02-27T10:45:10.881Z,69.66
2019-02-27T10:46:10.871Z,69.31
2019-02-27T10:47:10.859Z,69.70
2019-02-27T10:48:12.538Z,68.55
2019-02-27T10:49:10.841Z,68.26
2019-02-27T10:50:12.532Z,68.74
2019-02-27T10:51:10.824Z,67.78
2019-02-27T10:52:10.815Z,67.78
2019-02-27T10:53:10.806Z,68.35
2019-02-27T10:54:10.798Z,67.53
2019-02-27T10:55:11.228Z,67.82
2019-02-27T10:56:10.780Z,67.14
2019-02-27T10:57:10.771Z,67.63
2019-02-27T10:58:13.170Z,64.95
2019-02-27T10:59:10.753Z,64.85
2019-02-27T11:00:10.745Z,64.09
2019-02-27T11:01:10.741Z,63.99
2019-02-27T11:02:12.524Z,64.66
2019-02-27T11:03:10.720Z,62.65
2019-02-27T11:04:10.713Z,60.55
2019-02-27T11:05:10.704Z,60.55
2019-02-27T11:06:10.701Z,63.13
2019-02-27T11:07:13.204Z,62.43
2019-02-27T11:08:10.679Z,59.78
2019-02-27T11:09:10.672Z,59.97
2019-02-27T11:10:10.661Z,56.24
2019-02-27T11:11:13.137Z,55.86
2019-02-27T11:12:10.647Z,54.90
2019-02-27T11:13:10.636Z,54.43
2019-02-27T11:14:10.628Z,54.52
2019-02-27T11:15:10.620Z,52.32
2019-02-27T11:16:10.610Z,51.07
2019-02-27T11:17:10.607Z,51.36
2019-02-27T11:18:10.594Z,52.13
2019-02-27T11:19:10.586Z,52.22
2019-02-27T11:20:10.578Z,52.32
2019-02-27T11:21:10.570Z,52.61
2019-02-27T11:22:10.562Z,52.42
2019-02-27T11:23:10.555Z,52.22
2019-02-27T11:24:10.547Z,52.22
2019-02-27T11:25:10.538Z,52.22
2019-02-27T11:26:10.531Z,52.70
2019-02-27T11:27:10.522Z,53.08
2019-02-27T11:28:10.513Z,54.23
2019-02-27T11:29:10.506Z,54.04
2019-02-27T11:30:10.500Z,54.52
2019-02-27T11:31:11.028Z,54.45
2019-02-27T11:32:10.482Z,53.30
2019-02-27T11:33:10.479Z,53.69
2019-02-27T11:34:10.469Z,51.01
2019-02-27T11:35:10.456Z,50.91
2019-02-27T11:36:10.448Z,51.48
2019-02-27T11:37:13.779Z,51.97
2019-02-27T11:38:10.435Z,52.73
2019-02-27T11:39:10.424Z,55.79
2019-02-27T11:40:10.415Z,55.31
2019-02-27T11:41:14.925Z,54.74
2019-02-27T11:42:10.400Z,56.39
2019-02-27T11:43:10.393Z,56.10
2019-02-27T11:44:14.063Z,57.06
2019-02-27T11:45:10.383Z,54.67
2019-02-27T11:46:10.371Z,55.15
2019-02-27T11:47:11.362Z,56.77
2019-02-27T11:48:10.355Z,56.23
2019-02-27T11:49:10.346Z,56.81
2019-02-27T11:50:10.340Z,57.48
2019-02-27T11:51:10.331Z,55.85
2019-02-27T11:52:10.322Z,54.70
2019-02-27T11:53:10.316Z,53.64
2019-02-27T11:54:10.308Z,53.26
2019-02-27T11:55:10.302Z,53.58
2019-02-27T11:56:10.295Z,52.40
2019-02-27T11:57:10.289Z,53.09
2019-02-27T11:58:10.282Z,54.24
2019-02-27T11:59:12.808Z,53.58
2019-02-27T12:00:10.268Z,54.24
2019-02-27T12:01:12.096Z,54.63
2019-02-27T12:02:10.253Z,55.40
2019-02-27T12:03:11.080Z,55.40
2019-02-27T12:04:10.239Z,53.58
2019-02-27T12:05:10.231Z,51.75
2019-02-27T12:06:10.224Z,51.65
2019-02-27T12:07:12.187Z,51.56
2019-02-27T12:08:11.371Z,49.84
2019-02-27T12:09:10.202Z,50.10
2019-02-27T12:10:10.196Z,48.75
2019-02-27T12:11:13.281Z,50.20
2019-02-27T12:12:10.525Z,49.40
2019-02-27T12:13:10.174Z,49.69
2019-02-27T12:14:10.169Z,51.70
2019-02-27T12:15:10.164Z,54.48
2019-02-27T12:16:10.737Z,55.85
2019-02-27T12:17:10.146Z,54.50
2019-02-27T12:18:10.140Z,56.32
2019-02-27T12:19:10.134Z,54.79
2019-02-27T12:20:10.124Z,53.09
2019-02-27T12:21:10.118Z,51.56
2019-02-27T12:22:10.114Z,51.46
2019-02-27T12:23:10.748Z,51.75
2019-02-27T12:24:10.098Z,51.37
2019-02-27T12:25:10.089Z,51.95
2019-02-27T12:26:10.082Z,51.46
2019-02-27T12:27:10.390Z,49.84
2019-02-27T12:28:10.071Z,50.34
2019-02-27T12:29:10.062Z,50.34
2019-02-27T12:30:10.055Z,49.67
2019-02-27T12:31:10.965Z,49.10
2019-02-27T12:32:10.042Z,50.43
2019-02-27T12:33:10.036Z,50.05
2019-02-27T12:34:10.028Z,50.92
2019-02-27T12:35:10.884Z,49.00
2019-02-27T12:36:10.018Z,49.96
2019-02-27T12:37:23.666Z,51.01
2019-02-27T12:38:11.407Z,52.64
2019-02-27T12:39:09.996Z,50.73
2019-02-27T12:40:09.988Z,49.86
2019-02-27T12:41:09.994Z,49.31
2019-02-27T12:42:09.976Z,48.44
2019-02-27T12:43:09.970Z,48.93
2019-02-27T12:44:09.962Z,48.61
2019-02-27T12:45:09.956Z,49.02
2019-02-27T12:46:09.951Z,46.53
2019-02-27T12:47:09.949Z,46.79
2019-02-27T12:48:12.568Z,44.97
2019-02-27T12:49:09.932Z,44.59
2019-02-27T12:50:09.926Z,45.64
2019-02-27T12:51:09.919Z,45.45
2019-02-27T12:52:12.090Z,46.03
2019-02-27T12:53:09.906Z,45.26
2019-02-27T12:54:09.900Z,43.73